Time;durP1;ratioP1;P1;durP2;ratioP2;P2;SDS_P1;SDS_P2;PMS_P1;PMS_P2;Temp;Humidity;BMP_temperature;BMP_pressure;BME280_temperature;BME280_humidity;BME280_pressure;Samples;Min_cycle;Max_cycle;Signal;HPM_P1;HPM_P2
2023/05/09 00:02:07;;;;;;;16.58;14.95;;;;;;;;;;5082724;28;20048;-82
2023/05/09 00:04:34;;;;;;;17.15;15.55;;;;;;;;;;5081921;28;20044;-83
2023/05/09 00:07:00;;;;;;;16.88;15.18;;;;;;;;;;5047676;28;20055;-83
2023/05/09 00:09:26;;;;;;;17.33;15.63;;;;;;;;;;5047743;28;20055;-83
2023/05/09 00:11:52;;;;;;;17.70;15.90;;;;;;;;;;5079139;28;20052;-83
2023/05/09 00:14:18;;;;;;;16.63;15.02;;;;;;;;;;5073047;28;20055;-83
2023/05/09 00:16:45;;;;;;;17.23;15.52;;;;;;;;;;5056636;28;20044;-83
2023/05/09 00:19:11;;;;;;;16.58;14.98;;;;;;;;;;5078688;28;20051;-83
2023/05/09 00:21:38;;;;;;;16.63;14.85;;;;;;;;;;5078268;28;20533;-83
2023/05/09 00:24:04;;;;;;;16.10;14.50;;;;;;;;;;5080097;28;20045;-81
2023/05/09 00:26:30;;;;;;;17.13;14.80;;;;;;;;;;5080183;28;20064;-82
2023/05/09 00:28:56;;;;;;;15.75;14.05;;;;;;;;;;5076740;28;20067;-82
2023/05/09 00:31:22;;;;;;;15.50;13.93;;;;;;;;;;5082206;28;20047;-84
2023/05/09 00:33:48;;;;;;;15.18;13.57;;;;;;;;;;5089231;28;20040;-82
2023/05/09 00:36:14;;;;;;;14.77;13.27;;;;;;;;;;5089436;28;20116;-82
2023/05/09 00:38:40;;;;;;;15.75;14.13;;;;;;;;;;5066974;28;20048;-83
2023/05/09 00:41:07;;;;;;;16.58;14.07;;;;;;;;;;5081742;28;20122;-83
2023/05/09 00:43:33;;;;;;;16.98;15.35;;;;;;;;;;5081373;28;20498;-83
2023/05/09 00:46:00;;;;;;;17.20;14.43;;;;;;;;;;5075049;28;20091;-83
2023/05/09 00:48:26;;;;;;;15.82;14.25;;;;;;;;;;5076585;28;20068;-83
2023/05/09 00:50:52;;;;;;;16.10;14.60;;;;;;;;;;5081134;28;20047;-83
2023/05/09 00:53:21;;;;;;;16.58;14.98;;;;;;;;;;5062272;28;20044;-83
2023/05/09 00:55:47;;;;;;;17.35;15.55;;;;;;;;;;5060582;28;20098;-83
2023/05/09 00:58:14;;;;;;;17.08;15.50;;;;;;;;;;5079794;28;20096;-83
2023/05/09 01:00:41;;;;;;;17.05;15.20;;;;;;;;;;5060783;28;20406;-83
2023/05/09 01:03:07;;;;;;;17.80;15.48;;;;;;;;;;5048090;28;20105;-83
2023/05/09 01:05:54;;;;;;;17.98;16.23;;;;;;;;;;5065173;28;20037;-83
2023/05/09 01:08:27;;;;;;;16.52;14.93;;;;;;;;;;5009855;28;20060;-83
2023/05/09 01:11:01;;;;;;;17.00;15.27;;;;;;;;;;5076509;28;20056;-83
2023/05/09 01:13:31;;;;;;;17.30;15.60;;;;;;;;;;5059394;28;20482;-83
2023/05/09 01:16:04;;;;;;;16.58;14.93;;;;;;;;;;5075426;28;20452;-83
2023/05/09 01:18:43;;;;;;;16.92;15.10;;;;;;;;;;5069332;28;20033;-83
2023/05/09 01:21:19;;;;;;;15.85;14.25;;;;;;;;;;5066891;28;20449;-83
2023/05/09 01:24:01;;;;;;;16.42;14.82;;;;;;;;;;5069357;28;20116;-83
2023/05/09 01:26:27;;;;;;;17.13;15.02;;;;;;;;;;5071171;28;20512;-83
2023/05/09 01:28:56;;;;;;;16.63;14.40;;;;;;;;;;5058950;28;20051;-83
2023/05/09 01:31:23;;;;;;;15.77;14.18;;;;;;;;;;5077921;28;20055;-84
2023/05/09 01:33:52;;;;;;;20.98;16.02;;;;;;;;;;5078973;28;20044;-82
2023/05/09 01:36:18;;;;;;;16.23;14.60;;;;;;;;;;5078403;28;20056;-83
2023/05/09 01:38:48;;;;;;;17.30;15.55;;;;;;;;;;5071825;28;20063;-83
2023/05/09 01:41:16;;;;;;;16.27;14.57;;;;;;;;;;5071829;28;20063;-83
2023/05/09 01:43:44;;;;;;;17.65;15.07;;;;;;;;;;5080316;28;20498;-83
2023/05/09 01:46:11;;;;;;;17.75;15.95;;;;;;;;;;5085348;28;20045;-83
2023/05/09 01:48:37;;;;;;;17.15;15.48;;;;;;;;;;5084316;28;20048;-83
2023/05/09 01:51:04;;;;;;;16.38;14.68;;;;;;;;;;5040900;28;20306;-83
2023/05/09 01:53:30;;;;;;;16.05;14.55;;;;;;;;;;5082715;28;20045;-83
2023/05/09 01:55:58;;;;;;;17.88;15.98;;;;;;;;;;5080500;28;20044;-83
2023/05/09 01:58:25;;;;;;;18.00;15.73;;;;;;;;;;5061894;28;20056;-82
2023/05/09 02:00:51;;;;;;;17.35;15.40;;;;;;;;;;5080370;28;20148;-82
2023/05/09 02:03:17;;;;;;;17.00;15.25;;;;;;;;;;5062619;28;20108;-83
2023/05/09 02:05:44;;;;;;;17.33;15.48;;;;;;;;;;5082741;28;20033;-82
2023/05/09 02:08:11;;;;;;;17.73;15.00;;;;;;;;;;5082243;28;20045;-82
2023/05/09 02:10:37;;;;;;;17.50;15.70;;;;;;;;;;5081521;28;20063;-83
2023/05/09 02:13:03;;;;;;;17.50;15.68;;;;;;;;;;5065607;28;20052;-83
2023/05/09 02:15:29;;;;;;;18.42;15.45;;;;;;;;;;5076363;28;20055;-83
2023/05/09 02:17:56;;;;;;;17.15;15.45;;;;;;;;;;5045435;28;20037;-83
2023/05/09 02:20:22;;;;;;;17.48;15.65;;;;;;;;;;5059323;28;20417;-83
2023/05/09 02:22:48;;;;;;;16.35;14.75;;;;;;;;;;5077286;28;20338;-83
2023/05/09 02:25:14;;;;;;;17.40;15.48;;;;;;;;;;5081412;28;20051;-81
2023/05/09 02:27:42;;;;;;;17.08;15.38;;;;;;;;;;5060257;28;20032;-82
2023/05/09 02:30:10;;;;;;;16.52;14.82;;;;;;;;;;5078511;28;20043;-83
2023/05/09 02:32:38;;;;;;;16.70;15.00;;;;;;;;;;5059145;28;20049;-82
2023/05/09 02:35:05;;;;;;;16.25;14.55;;;;;;;;;;5083164;28;20037;-83
2023/05/09 02:37:32;;;;;;;16.77;15.07;;;;;;;;;;5055642;28;20048;-83
2023/05/09 02:39:58;;;;;;;16.63;14.75;;;;;;;;;;5080465;28;20496;-83
2023/05/09 02:42:25;;;;;;;15.70;14.10;;;;;;;;;;5080167;28;20040;-83
2023/05/09 02:44:52;;;;;;;15.80;14.13;;;;;;;;;;5047537;28;20091;-83
2023/05/09 02:47:18;;;;;;;15.63;14.02;;;;;;;;;;5083821;28;20068;-83
2023/05/09 02:49:45;;;;;;;17.05;14.38;;;;;;;;;;5082866;28;20054;-83
2023/05/09 02:52:11;;;;;;;19.10;15.02;;;;;;;;;;5082650;28;20064;-83
2023/05/09 02:54:38;;;;;;;16.80;15.00;;;;;;;;;;5081843;28;20045;-83
2023/05/09 02:57:04;;;;;;;16.50;14.85;;;;;;;;;;5074823;28;20091;-83
2023/05/09 02:59:31;;;;;;;19.08;16.33;;;;;;;;;;5078041;28;20545;-83
2023/05/09 03:01:57;;;;;;;17.38;15.57;;;;;;;;;;5070669;28;20090;-83
2023/05/09 03:04:24;;;;;;;17.50;15.75;;;;;;;;;;5066578;28;20040;-83
2023/05/09 03:06:51;;;;;;;17.00;15.25;;;;;;;;;;5076283;28;20045;-83
2023/05/09 03:09:17;;;;;;;18.65;16.75;;;;;;;;;;5081331;28;20102;-83
2023/05/09 03:11:43;;;;;;;19.00;15.98;;;;;;;;;;5083137;28;20064;-82
2023/05/09 03:14:10;;;;;;;19.25;16.58;;;;;;;;;;5070533;28;20049;-83
2023/05/09 03:16:36;;;;;;;19.27;17.13;;;;;;;;;;5071582;28;20106;-83
2023/05/09 03:19:03;;;;;;;20.77;18.67;;;;;;;;;;5074866;28;20048;-83
2023/05/09 03:21:30;;;;;;;19.70;17.67;;;;;;;;;;5075966;28;20040;-83
2023/05/09 03:23:56;;;;;;;21.35;17.70;;;;;;;;;;5067885;28;20083;-83
2023/05/09 03:26:23;;;;;;;20.00;18.08;;;;;;;;;;5077022;28;20037;-82
2023/05/09 03:28:49;;;;;;;21.45;19.35;;;;;;;;;;5072250;28;20036;-82
2023/05/09 03:31:15;;;;;;;22.10;19.80;;;;;;;;;;5066372;28;20063;-82
2023/05/09 03:33:41;;;;;;;21.92;19.55;;;;;;;;;;5040856;28;20051;-83
2023/05/09 03:36:07;;;;;;;21.60;19.35;;;;;;;;;;5077884;28;20082;-84
2023/05/09 03:38:33;;;;;;;23.85;19.98;;;;;;;;;;5075530;28;20528;-83
2023/05/09 03:40:59;;;;;;;22.73;20.00;;;;;;;;;;5080996;28;20048;-82
2023/05/09 03:43:26;;;;;;;22.27;19.92;;;;;;;;;;5076910;28;20041;-82
2023/05/09 03:45:52;;;;;;;25.80;21.17;;;;;;;;;;5079714;28;20544;-83
2023/05/09 03:48:18;;;;;;;24.55;21.25;;;;;;;;;;5078769;28;20040;-83
2023/05/09 03:50:44;;;;;;;25.13;22.00;;;;;;;;;;5074250;28;20036;-84
2023/05/09 03:53:10;;;;;;;22.48;20.17;;;;;;;;;;5064830;28;20041;-83
2023/05/09 03:55:36;;;;;;;23.67;21.08;;;;;;;;;;5060099;28;20056;-83
2023/05/09 03:58:03;;;;;;;23.55;21.05;;;;;;;;;;5027118;28;20048;-82
2023/05/09 04:00:29;;;;;;;25.92;21.27;;;;;;;;;;5069919;28;20087;-83
2023/05/09 04:02:55;;;;;;;24.67;21.48;;;;;;;;;;5081181;28;20059;-82
2023/05/09 04:05:21;;;;;;;25.40;22.05;;;;;;;;;;5079070;28;20102;-83
2023/05/09 04:07:47;;;;;;;24.52;22.02;;;;;;;;;;5079911;28;20514;-83
2023/05/09 04:10:13;;;;;;;26.17;23.48;;;;;;;;;;5079286;28;20052;-83
2023/05/09 04:12:39;;;;;;;26.70;22.58;;;;;;;;;;5079717;28;20048;-83
2023/05/09 04:15:06;;;;;;;26.67;23.67;;;;;;;;;;5080890;28;20063;-82
2023/05/09 04:17:32;;;;;;;25.40;22.70;;;;;;;;;;5081001;28;20068;-82
2023/05/09 04:19:58;;;;;;;26.63;23.77;;;;;;;;;;5078455;28;20048;-83
2023/05/09 04:22:24;;;;;;;27.15;23.10;;;;;;;;;;5068275;28;20404;-83
2023/05/09 04:24:50;;;;;;;30.98;24.27;;;;;;;;;;5075744;28;20091;-82
2023/05/09 04:27:16;;;;;;;26.85;24.00;;;;;;;;;;5061533;28;20048;-82
2023/05/09 04:29:42;;;;;;;28.13;24.73;;;;;;;;;;5079647;28;20541;-82
2023/05/09 04:32:08;;;;;;;26.40;23.00;;;;;;;;;;5060306;28;20040;-82
2023/05/09 04:34:34;;;;;;;24.55;21.95;;;;;;;;;;5076665;28;20040;-82
2023/05/09 04:37:00;;;;;;;25.30;22.65;;;;;;;;;;5071838;28;20098;-82
2023/05/09 04:39:27;;;;;;;26.30;23.48;;;;;;;;;;5032351;28;20051;-82
2023/05/09 04:41:53;;;;;;;25.85;23.20;;;;;;;;;;5084969;28;20076;-82
2023/05/09 04:44:20;;;;;;;24.98;22.08;;;;;;;;;;5082921;28;20152;-82
2023/05/09 04:46:46;;;;;;;28.45;23.30;;;;;;;;;;5071004;28;20056;-82
2023/05/09 04:49:12;;;;;;;26.33;23.60;;;;;;;;;;5060530;28;20044;-83
2023/05/09 04:51:38;;;;;;;29.10;24.40;;;;;;;;;;5044524;28;20402;-82
2023/05/09 04:54:05;;;;;;;27.48;24.45;;;;;;;;;;5078597;28;20048;-82
2023/05/09 04:56:31;;;;;;;28.23;24.52;;;;;;;;;;5077659;28;20055;-82
2023/05/09 04:58:57;;;;;;;27.08;23.92;;;;;;;;;;5077361;28;20434;-82
2023/05/09 05:01:23;;;;;;;27.02;23.67;;;;;;;;;;5055509;28;20513;-82
2023/05/09 05:03:49;;;;;;;29.38;24.25;;;;;;;;;;5076296;28;20088;-83
2023/05/09 05:06:15;;;;;;;28.35;25.13;;;;;;;;;;5081776;28;20048;-82
2023/05/09 05:08:42;;;;;;;29.65;26.20;;;;;;;;;;5081534;28;20036;-82
2023/05/09 05:11:08;;;;;;;28.70;25.63;;;;;;;;;;5083041;28;20048;-82
2023/05/09 05:13:34;;;;;;;29.17;26.08;;;;;;;;;;5082795;28;20113;-83
2023/05/09 05:16:00;;;;;;;28.92;25.55;;;;;;;;;;5063986;28;20041;-83
2023/05/09 05:18:26;;;;;;;28.77;25.63;;;;;;;;;;5064060;28;20478;-83
2023/05/09 05:20:52;;;;;;;30.05;26.77;;;;;;;;;;5076987;28;20559;-83
2023/05/09 05:23:18;;;;;;;28.38;25.30;;;;;;;;;;5070260;28;20044;-82
2023/05/09 05:25:44;;;;;;;30.17;26.98;;;;;;;;;;5080443;28;20085;-83
2023/05/09 05:28:10;;;;;;;31.05;25.88;;;;;;;;;;5081691;28;20040;-82
2023/05/09 05:30:36;;;;;;;30.60;27.35;;;;;;;;;;5077324;28;20064;-82
2023/05/09 05:33:02;;;;;;;30.65;26.52;;;;;;;;;;5063387;28;20051;-82
2023/05/09 05:35:28;;;;;;;29.25;26.20;;;;;;;;;;5073650;28;20115;-82
2023/05/09 05:37:54;;;;;;;29.35;26.42;;;;;;;;;;5078509;28;20044;-82
2023/05/09 05:40:20;;;;;;;29.33;26.17;;;;;;;;;;5080694;28;20049;-82
2023/05/09 05:42:46;;;;;;;31.67;27.80;;;;;;;;;;5063973;28;20059;-83
2023/05/09 05:45:13;;;;;;;29.75;26.60;;;;;;;;;;5082753;28;20045;-82
2023/05/09 05:47:39;;;;;;;28.23;25.38;;;;;;;;;;5078901;28;20072;-82
2023/05/09 05:50:07;;;;;;;29.63;26.73;;;;;;;;;;5088487;28;20036;-82
2023/05/09 05:52:33;;;;;;;30.58;27.27;;;;;;;;;;5075078;28;20152;-82
2023/05/09 05:54:59;;;;;;;29.45;26.40;;;;;;;;;;5082354;28;20041;-83
2023/05/09 05:57:25;;;;;;;29.67;26.63;;;;;;;;;;5061269;28;20048;-83
2023/05/09 05:59:51;;;;;;;31.48;28.08;;;;;;;;;;5079901;28;20104;-83
2023/05/09 06:02:17;;;;;;;30.02;26.80;;;;;;;;;;5073857;28;20501;-83
2023/05/09 06:04:43;;;;;;;30.33;27.17;;;;;;;;;;5072554;28;20041;-83
2023/05/09 06:07:10;;;;;;;29.92;26.67;;;;;;;;;;5061432;28;20067;-82
2023/05/09 06:09:36;;;;;;;30.23;26.98;;;;;;;;;;5078404;28;20127;-83
2023/05/09 06:12:02;;;;;;;31.13;27.83;;;;;;;;;;5082790;28;20293;-84
2023/05/09 06:14:29;;;;;;;31.85;27.73;;;;;;;;;;5076105;28;20403;-83
2023/05/09 06:16:55;;;;;;;30.77;27.42;;;;;;;;;;5077387;28;20076;-83
2023/05/09 06:19:21;;;;;;;30.17;26.92;;;;;;;;;;5053980;28;20119;-83
2023/05/09 06:21:47;;;;;;;30.13;27.13;;;;;;;;;;5081368;28;20040;-83
2023/05/09 06:24:13;;;;;;;30.60;27.02;;;;;;;;;;5077666;28;20041;-83
2023/05/09 06:26:39;;;;;;;31.40;27.30;;;;;;;;;;5082975;28;20044;-82
2023/05/09 06:29:06;;;;;;;30.48;27.30;;;;;;;;;;5083099;28;20072;-82
2023/05/09 06:31:37;;;;;;;31.05;27.70;;;;;;;;;;5078116;28;20056;-82
2023/05/09 06:34:03;;;;;;;30.48;27.48;;;;;;;;;;5077984;28;20070;-82
2023/05/09 06:36:29;;;;;;;30.27;27.15;;;;;;;;;;5073674;28;20536;-82
2023/05/09 06:38:55;;;;;;;31.58;28.30;;;;;;;;;;5053747;28;20108;-83
2023/05/09 06:41:22;;;;;;;30.90;27.60;;;;;;;;;;5048389;28;20041;-82
2023/05/09 06:43:48;;;;;;;29.23;26.30;;;;;;;;;;5077717;28;20098;-82
2023/05/09 06:46:14;;;;;;;30.60;27.50;;;;;;;;;;5046292;28;20063;-82
2023/05/09 06:48:40;;;;;;;29.58;26.48;;;;;;;;;;5047309;28;20448;-83
2023/05/09 06:51:07;;;;;;;29.85;26.13;;;;;;;;;;5073790;28;20059;-83
2023/05/09 06:53:33;;;;;;;29.98;26.98;;;;;;;;;;5058887;28;20033;-83
2023/05/09 06:55:59;;;;;;;29.20;26.13;;;;;;;;;;5080593;28;20168;-83
2023/05/09 06:58:26;;;;;;;28.80;25.88;;;;;;;;;;5065470;28;20033;-83
2023/05/09 07:00:52;;;;;;;29.27;26.38;;;;;;;;;;5033051;28;20487;-83
2023/05/09 07:03:18;;;;;;;29.17;26.23;;;;;;;;;;5070735;28;20128;-83
2023/05/09 07:05:44;;;;;;;28.65;25.63;;;;;;;;;;5065440;28;20059;-82
2023/05/09 07:08:10;;;;;;;29.27;26.17;;;;;;;;;;5078784;28;20055;-83
2023/05/09 07:10:37;;;;;;;29.40;26.40;;;;;;;;;;5064981;28;20060;-83
2023/05/09 07:13:03;;;;;;;29.80;26.02;;;;;;;;;;5071572;28;20048;-82
2023/05/09 07:15:29;;;;;;;28.88;25.85;;;;;;;;;;5069757;28;20110;-82
2023/05/09 07:17:56;;;;;;;30.23;27.10;;;;;;;;;;5079516;28;20382;-82
2023/05/09 07:20:22;;;;;;;29.88;26.77;;;;;;;;;;5078852;28;20123;-82
2023/05/09 07:22:48;;;;;;;30.67;27.33;;;;;;;;;;5074819;28;20347;-81
2023/05/09 07:25:14;;;;;;;29.58;26.38;;;;;;;;;;5063989;28;20059;-83
2023/05/09 07:27:40;;;;;;;31.98;28.30;;;;;;;;;;5050423;28;20045;-82
2023/05/09 07:30:08;;;;;;;31.67;28.27;;;;;;;;;;5045067;28;20597;-81
2023/05/09 07:32:34;;;;;;;32.60;28.50;;;;;;;;;;5060572;28;20490;-83
2023/05/09 07:35:00;;;;;;;32.83;28.17;;;;;;;;;;5082128;28;20055;-83
2023/05/09 07:37:26;;;;;;;32.00;28.55;;;;;;;;;;5055021;28;20043;-82
2023/05/09 07:39:52;;;;;;;38.78;31.38;;;;;;;;;;5071754;28;20048;-84
2023/05/09 07:42:18;;;;;;;42.95;31.52;;;;;;;;;;5073734;28;20170;-82
2023/05/09 07:44:44;;;;;;;42.35;33.70;;;;;;;;;;5074272;28;20048;-82
2023/05/09 07:47:10;;;;;;;44.03;34.03;;;;;;;;;;5079070;28;20041;-83
2023/05/09 07:49:37;;;;;;;43.00;33.92;;;;;;;;;;5076181;28;20040;-83
2023/05/09 07:52:03;;;;;;;43.65;34.35;;;;;;;;;;5073225;28;20060;-81
2023/05/09 07:54:29;;;;;;;41.85;33.28;;;;;;;;;;5077728;28;20044;-82
2023/05/09 07:56:55;;;;;;;43.03;33.45;;;;;;;;;;5056183;28;20494;-82
2023/05/09 07:59:21;;;;;;;43.80;35.50;;;;;;;;;;5069936;28;20041;-82
2023/05/09 08:01:47;;;;;;;41.47;32.88;;;;;;;;;;5070787;28;20045;-82
2023/05/09 08:04:13;;;;;;;39.97;32.30;;;;;;;;;;5077216;28;20501;-82
2023/05/09 08:06:39;;;;;;;43.85;34.55;;;;;;;;;;5052719;28;20072;-82
2023/05/09 08:09:05;;;;;;;40.97;30.67;;;;;;;;;;5076860;28;20079;-79
2023/05/09 08:11:35;;;;;;;35.35;30.23;;;;;;;;;;5063391;28;20055;-80
2023/05/09 08:14:01;;;;;;;37.58;28.27;;;;;;;;;;5073348;28;20041;-70
2023/05/09 08:16:27;;;;;;;53.45;30.40;;;;;;;;;;5053581;28;20123;-71
2023/05/09 08:18:53;;;;;;;41.47;32.10;;;;;;;;;;5077849;28;20040;-82
2023/05/09 08:21:20;;;;;;;42.25;33.20;;;;;;;;;;5075044;28;20055;-82
2023/05/09 08:23:46;;;;;;;41.58;32.97;;;;;;;;;;5062294;28;20044;-82
2023/05/09 08:26:12;;;;;;;44.40;33.88;;;;;;;;;;5072990;28;20075;-83
2023/05/09 08:28:38;;;;;;;43.03;34.45;;;;;;;;;;5075051;28;20078;-82
2023/05/09 08:31:04;;;;;;;40.83;33.10;;;;;;;;;;5089094;28;20044;-82
2023/05/09 08:33:30;;;;;;;35.17;30.13;;;;;;;;;;5075722;28;20089;-82
2023/05/09 08:35:56;;;;;;;35.35;30.85;;;;;;;;;;5079829;28;20041;-82
2023/05/09 08:38:25;;;;;;;39.75;31.48;;;;;;;;;;5075507;28;20029;-82
2023/05/09 08:40:51;;;;;;;35.10;31.30;;;;;;;;;;5067592;28;20044;-82
2023/05/09 08:43:19;;;;;;;34.80;30.23;;;;;;;;;;5075956;28;20405;-82
2023/05/09 08:45:47;;;;;;;35.95;30.67;;;;;;;;;;5073311;28;20040;-82
2023/05/09 08:48:16;;;;;;;37.30;31.27;;;;;;;;;;5085185;28;20059;-82
2023/05/09 08:50:42;;;;;;;38.90;32.28;;;;;;;;;;5074850;28;20112;-69
2023/05/09 08:53:08;;;;;;;37.17;30.42;;;;;;;;;;5059606;28;20045;-81
2023/05/09 08:55:35;;;;;;;35.63;31.05;;;;;;;;;;5066900;28;20123;-82
2023/05/09 08:58:01;;;;;;;40.72;32.13;;;;;;;;;;5082273;28;20119;-82
2023/05/09 09:00:27;;;;;;;42.90;34.92;;;;;;;;;;5080156;28;20044;-82
2023/05/09 09:02:53;;;;;;;43.30;33.83;;;;;;;;;;5067139;28;20041;-82
2023/05/09 09:05:20;;;;;;;42.10;34.17;;;;;;;;;;5055125;28;20371;-83
2023/05/09 09:07:46;;;;;;;46.15;33.63;;;;;;;;;;5070134;28;20116;-82
2023/05/09 09:10:12;;;;;;;45.95;35.90;;;;;;;;;;5071127;28;20056;-82
2023/05/09 09:12:39;;;;;;;45.50;35.47;;;;;;;;;;5085025;28;20087;-79
2023/05/09 09:15:05;;;;;;;47.00;34.88;;;;;;;;;;5083832;28;20040;-79
2023/05/09 09:17:32;;;;;;;45.50;36.17;;;;;;;;;;5081579;28;20410;-80
2023/05/09 09:20:00;;;;;;;46.67;35.65;;;;;;;;;;5079176;28;20440;-80
2023/05/09 09:22:31;;;;;;;46.88;36.00;;;;;;;;;;5074563;28;20051;-80
2023/05/09 09:24:58;;;;;;;45.88;33.28;;;;;;;;;;5075286;28;20049;-71
2023/05/09 09:27:25;;;;;;;44.97;33.67;;;;;;;;;;5075356;28;20130;-75
2023/05/09 09:29:51;;;;;;;47.20;34.83;;;;;;;;;;5066819;28;20537;-81
2023/05/09 09:32:18;;;;;;;48.88;35.65;;;;;;;;;;5079740;28;20048;-80
2023/05/09 09:34:46;;;;;;;45.65;35.65;;;;;;;;;;5078735;28;20077;-80
2023/05/09 09:37:21;;;;;;;44.80;34.90;;;;;;;;;;5073429;28;20444;-80
2023/05/09 09:39:55;;;;;;;46.15;35.22;;;;;;;;;;5057272;28;20049;-80
2023/05/09 09:42:22;;;;;;;45.50;35.80;;;;;;;;;;5073799;28;20036;-80
2023/05/09 09:45:02;;;;;;;47.60;36.50;;;;;;;;;;5069419;28;20526;-80
2023/05/09 09:47:31;;;;;;;48.10;36.55;;;;;;;;;;5075180;28;20506;-81
2023/05/09 09:49:58;;;;;;;44.85;36.20;;;;;;;;;;5081606;28;20037;-80
2023/05/09 09:52:24;;;;;;;47.83;35.78;;;;;;;;;;5073152;28;20044;-80
2023/05/09 09:54:50;;;;;;;42.58;34.20;;;;;;;;;;5076456;28;20055;-80
2023/05/09 09:57:35;;;;;;;43.60;35.75;;;;;;;;;;5078695;28;20033;-80
2023/05/09 10:00:02;;;;;;;45.58;35.42;;;;;;;;;;5044058;28;20071;-81
2023/05/09 10:02:28;;;;;;;47.90;36.20;;;;;;;;;;5055761;28;20494;-80
2023/05/09 10:04:54;;;;;;;50.05;37.40;;;;;;;;;;5064900;28;20045;-80
2023/05/09 10:07:22;;;;;;;49.50;37.22;;;;;;;;;;5080143;28;20537;-80
2023/05/09 10:09:49;;;;;;;52.08;37.72;;;;;;;;;;5069583;28;20048;-80
2023/05/09 10:12:18;;;;;;;46.92;37.33;;;;;;;;;;5079066;28;20052;-80
2023/05/09 10:14:45;;;;;;;53.10;37.83;;;;;;;;;;5072181;28;20068;-79
2023/05/09 10:17:13;;;;;;;51.33;37.88;;;;;;;;;;5067518;28;20087;-81
2023/05/09 10:19:41;;;;;;;50.88;38.55;;;;;;;;;;5065937;28;20052;-80
2023/05/09 10:22:09;;;;;;;56.20;40.65;;;;;;;;;;5074561;28;20068;-80
2023/05/09 10:24:50;;;;;;;52.65;39.70;;;;;;;;;;5076493;28;20097;-80
2023/05/09 10:27:18;;;;;;;55.40;39.33;;;;;;;;;;5062970;28;20052;-80
2023/05/09 10:29:45;;;;;;;57.75;40.05;;;;;;;;;;5076396;28;20064;-80
2023/05/09 10:32:16;;;;;;;54.35;39.22;;;;;;;;;;5078074;28;20170;-81
2023/05/09 10:34:43;;;;;;;52.70;38.27;;;;;;;;;;5079301;28;20048;-80
2023/05/09 10:37:09;;;;;;;54.60;39.13;;;;;;;;;;5079445;28;20045;-80
2023/05/09 10:39:36;;;;;;;57.05;39.45;;;;;;;;;;5077490;28;20201;-80
2023/05/09 10:42:02;;;;;;;56.88;39.88;;;;;;;;;;5078449;28;20052;-80
2023/05/09 10:44:28;;;;;;;52.97;39.13;;;;;;;;;;5077909;28;20436;-80
2023/05/09 10:46:55;;;;;;;57.80;39.53;;;;;;;;;;5079056;28;20053;-80
2023/05/09 10:49:21;;;;;;;60.05;40.75;;;;;;;;;;5078411;28;20090;-80
2023/05/09 10:51:50;;;;;;;55.70;39.97;;;;;;;;;;5081300;28;20045;-80
2023/05/09 10:54:26;;;;;;;59.70;39.67;;;;;;;;;;5067468;28;20068;-81
2023/05/09 10:56:52;;;;;;;57.35;40.55;;;;;;;;;;5072981;28;20037;-80
2023/05/09 10:59:37;;;;;;;55.33;38.55;;;;;;;;;;5073909;28;20041;-79
2023/05/09 11:02:04;;;;;;;59.35;39.88;;;;;;;;;;5070722;28;20071;-79
2023/05/09 11:04:31;;;;;;;57.10;38.53;;;;;;;;;;5074387;28;20138;-79
2023/05/09 11:06:57;;;;;;;59.70;39.70;;;;;;;;;;5067364;28;20037;-79
2023/05/09 11:09:27;;;;;;;60.13;40.78;;;;;;;;;;5048260;28;20045;-78
2023/05/09 11:11:55;;;;;;;64.25;41.70;;;;;;;;;;5065660;28;20410;-77
2023/05/09 11:14:30;;;;;;;64.07;42.47;;;;;;;;;;5076289;28;20082;-76
2023/05/09 11:17:00;;;;;;;65.20;43.47;;;;;;;;;;5066546;28;20076;-77
2023/05/09 11:19:37;;;;;;;64.80;43.27;;;;;;;;;;5070981;28;20059;-79
2023/05/09 11:22:11;;;;;;;64.60;43.92;;;;;;;;;;5076610;28;20045;-79
2023/05/09 11:24:37;;;;;;;62.47;43.75;;;;;;;;;;5080350;28;20045;-79
2023/05/09 11:27:13;;;;;;;70.95;47.58;;;;;;;;;;5075424;28;20040;-79
2023/05/09 11:29:43;;;;;;;73.07;47.17;;;;;;;;;;5064107;28;20509;-78
2023/05/09 11:32:14;;;;;;;71.47;47.22;;;;;;;;;;5071935;28;20045;-79
2023/05/09 11:34:43;;;;;;;71.38;49.35;;;;;;;;;;5074640;28;20098;-78
2023/05/09 11:37:10;;;;;;;70.72;48.67;;;;;;;;;;5054271;28;20418;-79
2023/05/09 11:39:54;;;;;;;73.40;50.45;;;;;;;;;;5062121;28;20041;-78
2023/05/09 11:42:20;;;;;;;74.75;49.08;;;;;;;;;;5056574;28;20049;-80
2023/05/09 11:44:47;;;;;;;70.13;47.95;;;;;;;;;;5058998;28;20041;-81
2023/05/09 11:47:14;;;;;;;65.00;47.28;;;;;;;;;;5069166;28;20115;-80
2023/05/09 11:49:43;;;;;;;68.03;45.83;;;;;;;;;;5078131;28;20075;-79
2023/05/09 11:52:10;;;;;;;65.95;45.25;;;;;;;;;;5077053;28;20052;-80
2023/05/09 11:54:39;;;;;;;70.70;48.55;;;;;;;;;;5058572;28;20436;-80
2023/05/09 11:57:05;;;;;;;68.13;46.63;;;;;;;;;;5077137;28;20047;-80
2023/05/09 11:59:32;;;;;;;72.22;49.50;;;;;;;;;;5069072;28;20047;-79
2023/05/09 12:02:02;;;;;;;72.10;49.42;;;;;;;;;;5076711;28;20040;-79
2023/05/09 12:04:30;;;;;;;67.35;49.75;;;;;;;;;;5073964;28;20051;-80
2023/05/09 12:06:58;;;;;;;65.90;47.95;;;;;;;;;;5070096;28;20049;-78
2023/05/09 12:09:26;;;;;;;72.72;50.38;;;;;;;;;;5073202;28;20096;-79
2023/05/09 12:11:52;;;;;;;73.32;51.15;;;;;;;;;;5074095;28;20040;-79
2023/05/09 12:14:30;;;;;;;77.32;52.20;;;;;;;;;;5074973;28;20456;-78
2023/05/09 12:16:56;;;;;;;77.00;52.55;;;;;;;;;;5056744;28;20049;-79
2023/05/09 12:19:24;;;;;;;79.57;55.25;;;;;;;;;;5056168;28;20075;-78
2023/05/09 12:21:55;;;;;;;85.15;55.10;;;;;;;;;;5056807;28;20049;-80
2023/05/09 12:24:21;;;;;;;80.88;53.08;;;;;;;;;;5048860;28;20513;-79
2023/05/09 12:26:48;;;;;;;107.97;53.47;;;;;;;;;;5075162;28;20044;-84
2023/05/09 12:29:14;;;;;;;88.65;54.00;;;;;;;;;;5044683;28;20044;-80
2023/05/09 12:31:43;;;;;;;79.43;53.38;;;;;;;;;;5061116;28;20050;-77
2023/05/09 12:34:09;;;;;;;70.45;50.72;;;;;;;;;;5077388;28;20072;-78
2023/05/09 12:36:36;;;;;;;82.88;50.78;;;;;;;;;;5062082;28;20041;-80
2023/05/09 12:39:03;;;;;;;76.20;52.30;;;;;;;;;;5078202;28;20067;-80
2023/05/09 12:41:30;;;;;;;73.35;50.17;;;;;;;;;;5078934;28;20083;-79
2023/05/09 12:43:56;;;;;;;71.45;49.47;;;;;;;;;;5060821;28;20059;-79
2023/05/09 12:46:22;;;;;;;72.28;51.40;;;;;;;;;;5077592;28;20051;-81
2023/05/09 12:48:48;;;;;;;73.75;49.47;;;;;;;;;;5074618;28;20044;-79
2023/05/09 12:51:21;;;;;;;64.32;49.08;;;;;;;;;;5074993;28;20090;-79
2023/05/09 12:53:47;;;;;;;62.08;50.40;;;;;;;;;;5077705;28;20079;-78
2023/05/09 12:56:14;;;;;;;68.55;48.63;;;;;;;;;;5051492;28;20101;-78
2023/05/09 12:58:47;;;;;;;58.08;49.85;;;;;;;;;;5060278;28;20056;-77
2023/05/09 13:01:13;;;;;;;61.58;49.50;;;;;;;;;;5049515;28;20123;-77
2023/05/09 13:03:39;;;;;;;62.60;50.78;;;;;;;;;;5070331;28;20515;-78
2023/05/09 13:06:11;;;;;;;62.10;50.53;;;;;;;;;;5065492;28;20040;-78
2023/05/09 13:08:38;;;;;;;60.53;50.10;;;;;;;;;;5075338;28;20040;-77
2023/05/09 13:11:04;;;;;;;65.28;51.72;;;;;;;;;;5053673;28;20052;-78
2023/05/09 13:13:30;;;;;;;58.90;48.50;;;;;;;;;;5064401;28;20094;-78
2023/05/09 13:15:56;;;;;;;61.17;50.88;;;;;;;;;;5056071;28;20037;-79
2023/05/09 13:18:23;;;;;;;56.53;49.33;;;;;;;;;;5073822;28;20098;-78
2023/05/09 13:20:52;;;;;;;53.95;47.63;;;;;;;;;;5073406;28;20044;-79
2023/05/09 13:23:18;;;;;;;54.33;47.67;;;;;;;;;;5070599;28;20573;-78
2023/05/09 13:25:44;;;;;;;56.42;46.25;;;;;;;;;;5069132;28;20036;-79
2023/05/09 13:28:10;;;;;;;51.92;46.08;;;;;;;;;;5074559;28;20048;-78
2023/05/09 13:30:36;;;;;;;53.67;45.45;;;;;;;;;;5076972;28;20052;-78
2023/05/09 13:33:02;;;;;;;51.60;45.33;;;;;;;;;;5076849;28;20406;-78
2023/05/09 13:35:29;;;;;;;50.83;45.38;;;;;;;;;;5059089;28;20046;-78
2023/05/09 13:37:57;;;;;;;46.97;42.08;;;;;;;;;;5055766;28;20494;-78
2023/05/09 13:40:23;;;;;;;47.78;42.78;;;;;;;;;;5076258;28;20044;-78
2023/05/09 13:42:49;;;;;;;45.75;40.95;;;;;;;;;;5076802;28;20040;-78
2023/05/09 13:45:15;;;;;;;44.67;40.03;;;;;;;;;;5072013;28;20044;-79
2023/05/09 13:47:41;;;;;;;43.95;39.42;;;;;;;;;;5078218;28;20127;-78
2023/05/09 13:50:08;;;;;;;41.85;37.70;;;;;;;;;;5083968;28;20071;-79
2023/05/09 13:52:34;;;;;;;41.55;37.58;;;;;;;;;;5081056;28;20055;-77
2023/05/09 13:55:00;;;;;;;43.50;39.38;;;;;;;;;;5076981;28;20147;-78
2023/05/09 13:57:26;;;;;;;45.95;41.33;;;;;;;;;;5062291;28;20045;-78
2023/05/09 13:59:53;;;;;;;48.53;43.75;;;;;;;;;;5070548;28;20170;-77
2023/05/09 14:02:19;;;;;;;48.50;43.70;;;;;;;;;;5068753;28;20128;-77
2023/05/09 14:04:46;;;;;;;49.30;44.38;;;;;;;;;;5065262;28;20508;-77
2023/05/09 14:07:13;;;;;;;50.72;45.53;;;;;;;;;;5044281;28;20048;-79
2023/05/09 14:09:39;;;;;;;50.67;45.42;;;;;;;;;;5079836;28;20067;-79
2023/05/09 14:12:06;;;;;;;53.85;48.35;;;;;;;;;;5079962;28;20044;-80
2023/05/09 14:14:32;;;;;;;55.85;49.95;;;;;;;;;;5079279;28;20051;-79
2023/05/09 14:16:58;;;;;;;54.70;49.00;;;;;;;;;;5078335;28;20456;-79